Stephen R Warden — WDC6523 — position and weather

sailwx.info

Track history (hours):
 
Tides and Currents Weather Stations Pressure Air Temp Water Temp Dewpoint Dewpoint Depression Visibility Wind Speed Wind Dir Waves Ship Positions

Stephen R Warden

Owner: American Commercial Lines LLC, Jeffersonvile, IN. More information available from US FCC via Universal Licensing System and Coast Guard Vessel Documentation Center.

Last reported at 2017-Jan-05 00:27 UTC. Time now 2017-Jan-21 00:16 UTC.
Position N 29°55' W 090°07'.
Warning: this ship's position is 15 days out of date.

Length 40 m; draft 3 m.

Type: Towing. MMSI: 367057460.

Date/timePositionNaut miles runAvg speedWind from/ knotsBaromVisibWave heightAir tempDewpointWater temp
2017-Jan-05 00:27N 29°55' W 090°07'4 4.3
2017-Jan-04 23:33N 29°56' W 090°11'0 0.1
2017-Jan-04 21:05N 29°56' W 090°11'4 6.5
2017-Jan-04 20:31N 29°58' W 090°15'  
2017-Jan-02 08:21N 29°56' W 090°19'4 4.5
2017-Jan-02 07:32N 29°58' W 090°16'0 0.0
2017-Jan-02 06:15N 29°58' W 090°16'0 0.0
2017-Jan-02 05:31N 29°58' W 090°16'0 0.0
2017-Jan-02 04:31N 29°58' W 090°16'0 0.0
2017-Jan-02 03:33N 29°58' W 090°16'0 0.0
2017-Jan-02 02:33N 29°58' W 090°16'0 0.0
2017-Jan-02 01:31N 29°58' W 090°16'0 0.0
2017-Jan-02 00:31N 29°58' W 090°16'3 2.8
2017-Jan-01 23:33N 29°57' W 090°13'4 3.5
2017-Jan-01 22:33N 29°57' W 090°09'5 3.7
2017-Jan-01 21:08N 29°57' W 090°03'2 0.1
2016-Dec-31 22:23N 29°57' W 090°01'2 0.8
2016-Dec-31 20:22N 29°57' W 090°03'5 5.9
2016-Dec-31 19:32N 29°55' W 090°07'4 3.8
2016-Dec-31 18:33N 29°56' W 090°11'0 0.1
2016-Dec-31 17:33N 29°56' W 090°11'0 0.0
2016-Dec-31 16:33N 29°56' W 090°11'0 0.0
2016-Dec-31 15:33N 29°56' W 090°11'2 0.5
2016-Dec-31 12:25N 29°56' W 090°13'  
2016-Dec-28 20:26N 29°57' W 090°18'2 1.1
2016-Dec-28 18:33N 29°58' W 090°16'5 4.9
2016-Dec-28 17:33N 29°56' W 090°11'0 0.4
2016-Dec-28 16:33N 29°56' W 090°11'5 5.2
2016-Dec-28 15:33N 29°58' W 090°16'1 0.0
2016-Dec-26 16:32N 29°58' W 090°18'4 3.9
2016-Dec-26 15:32N 29°57' W 090°13'2 1.9
2016-Dec-26 14:33N 29°56' W 090°11'1 0.6
2016-Dec-26 13:33N 29°56' W 090°11'1 0.6
2016-Dec-26 12:33N 29°56' W 090°11'0 0.0
2016-Dec-26 11:33N 29°56' W 090°11'0 0.0
2016-Dec-26 10:33N 29°56' W 090°11'0 0.0
2016-Dec-26 09:33N 29°56' W 090°11'0 0.4
2016-Dec-26 08:33N 29°56' W 090°11'2 2.1
2016-Dec-26 07:33N 29°57' W 090°08'  
Track history (hours):
 
Tides and Currents Weather Stations Pressure Air Temp Water Temp Dewpoint Dewpoint Depression Visibility Wind Speed Wind Dir Waves Ship Positions

Stephen R Warden

Owner: American Commercial Lines LLC, Jeffersonvile, IN. More information available from US FCC via Universal Licensing System and Coast Guard Vessel Documentation Center.

Last reported at 2017-Jan-05 00:27 UTC. Time now 2017-Jan-21 00:16 UTC.
Position N 29°55' W 090°07'.
Warning: this ship's position is 15 days out of date.

Length 40 m; draft 3 m.

Type: Towing. MMSI: 367057460.

Date/timePositionNaut miles runAvg speedWind from/ knotsBaromVisibWave heightAir tempDewpointWater temp
2017-Jan-05 00:27N 29°55' W 090°07'4 4.3
2017-Jan-04 23:33N 29°56' W 090°11'0 0.1
2017-Jan-04 21:05N 29°56' W 090°11'4 6.5
2017-Jan-04 20:31N 29°58' W 090°15'  
2017-Jan-02 08:21N 29°56' W 090°19'4 4.5
2017-Jan-02 07:32N 29°58' W 090°16'0 0.0
2017-Jan-02 06:15N 29°58' W 090°16'0 0.0
2017-Jan-02 05:31N 29°58' W 090°16'0 0.0
2017-Jan-02 04:31N 29°58' W 090°16'0 0.0
2017-Jan-02 03:33N 29°58' W 090°16'0 0.0
2017-Jan-02 02:33N 29°58' W 090°16'0 0.0
2017-Jan-02 01:31N 29°58' W 090°16'0 0.0
2017-Jan-02 00:31N 29°58' W 090°16'3 2.8
2017-Jan-01 23:33N 29°57' W 090°13'4 3.5
2017-Jan-01 22:33N 29°57' W 090°09'5 3.7
2017-Jan-01 21:08N 29°57' W 090°03'2 0.1
2016-Dec-31 22:23N 29°57' W 090°01'2 0.8
2016-Dec-31 20:22N 29°57' W 090°03'5 5.9
2016-Dec-31 19:32N 29°55' W 090°07'4 3.8
2016-Dec-31 18:33N 29°56' W 090°11'0 0.1
2016-Dec-31 17:33N 29°56' W 090°11'0 0.0
2016-Dec-31 16:33N 29°56' W 090°11'0 0.0
2016-Dec-31 15:33N 29°56' W 090°11'2 0.5
2016-Dec-31 12:25N 29°56' W 090°13'  
2016-Dec-28 20:26N 29°57' W 090°18'2 1.1
2016-Dec-28 18:33N 29°58' W 090°16'5 4.9
2016-Dec-28 17:33N 29°56' W 090°11'0 0.4
2016-Dec-28 16:33N 29°56' W 090°11'5 5.2
2016-Dec-28 15:33N 29°58' W 090°16'1 0.0
2016-Dec-26 16:32N 29°58' W 090°18'4 3.9
2016-Dec-26 15:32N 29°57' W 090°13'2 1.9
2016-Dec-26 14:33N 29°56' W 090°11'1 0.6
2016-Dec-26 13:33N 29°56' W 090°11'1 0.6
2016-Dec-26 12:33N 29°56' W 090°11'0 0.0
2016-Dec-26 11:33N 29°56' W 090°11'0 0.0
2016-Dec-26 10:33N 29°56' W 090°11'0 0.0
2016-Dec-26 09:33N 29°56' W 090°11'0 0.4
2016-Dec-26 08:33N 29°56' W 090°11'2 2.1
2016-Dec-26 07:33N 29°57' W 090°08'  

Dump ship's entire track history